createdAt,value
2023-02-13T00:00:20.299Z,5.95
2023-02-13T00:02:47.349Z,6.68
2023-02-13T00:05:13.952Z,6.25
2023-02-13T00:07:40.665Z,6.68
2023-02-13T00:10:08.134Z,6.70
2023-02-13T00:12:35.176Z,6.00
2023-02-13T00:15:01.809Z,6.65
2023-02-13T00:17:28.431Z,5.68
2023-02-13T00:19:55.181Z,6.03
2023-02-13T00:22:21.741Z,6.00
2023-02-13T00:24:48.460Z,5.65
2023-02-13T00:27:15.265Z,6.22
2023-02-13T00:29:41.875Z,6.78
2023-02-13T00:32:09.105Z,6.72
2023-02-13T00:34:36.500Z,6.63
2023-02-13T00:37:03.677Z,5.07
2023-02-13T00:39:30.247Z,6.20
2023-02-13T00:41:57.058Z,6.25
2023-02-13T00:44:23.579Z,6.20
2023-02-13T00:46:50.352Z,6.03
2023-02-13T00:49:17.429Z,6.25
2023-02-13T00:51:43.945Z,6.32
2023-02-13T00:54:10.637Z,6.22
2023-02-13T00:56:37.435Z,6.60
2023-02-13T00:59:05.784Z,6.32
2023-02-13T01:01:32.806Z,6.00
2023-02-13T01:04:00.005Z,5.97
2023-02-13T01:06:27.641Z,5.80
2023-02-13T01:08:54.565Z,5.63
2023-02-13T01:11:21.441Z,5.60
2023-02-13T01:13:48.093Z,6.20
2023-02-13T01:16:17.926Z,5.45
2023-02-13T01:18:44.933Z,5.90
2023-02-13T01:21:18.706Z,5.38
2023-02-13T01:23:46.302Z,5.00
2023-02-13T01:26:21.359Z,6.03
2023-02-13T01:28:53.525Z,6.00
2023-02-13T01:31:21.209Z,5.53
2023-02-13T01:33:50.313Z,4.93
2023-02-13T01:36:17.135Z,5.82
2023-02-13T01:38:43.911Z,5.97
2023-02-13T01:41:11.152Z,5.47
2023-02-13T01:43:51.827Z,6.28
2023-02-13T01:46:34.074Z,6.65
2023-02-13T01:49:10.783Z,6.03
2023-02-13T01:51:38.945Z,5.55
2023-02-13T01:54:15.200Z,5.65
2023-02-13T01:56:46.843Z,5.38
2023-02-13T01:59:19.106Z,5.13
2023-02-13T02:01:47.863Z,6.55
2023-02-13T02:04:22.756Z,5.75
2023-02-13T02:06:59.526Z,6.07
2023-02-13T02:09:37.494Z,6.37
2023-02-13T02:12:14.857Z,6.07
2023-02-13T02:14:43.286Z,5.75
2023-02-13T02:17:11.916Z,6.03
2023-02-13T02:19:44.750Z,5.95
2023-02-13T02:22:48.856Z,5.43
2023-02-13T02:25:55.263Z,6.35
2023-02-13T02:28:48.933Z,7.13
2023-02-13T02:31:37.659Z,6.25
2023-02-13T02:34:26.185Z,5.97
2023-02-13T02:37:18.509Z,6.18
2023-02-13T02:39:58.200Z,7.20
2023-02-13T02:42:59.182Z,6.95
2023-02-13T02:46:07.262Z,6.20
2023-02-13T02:49:13.499Z,6.25
2023-02-13T02:51:55.152Z,6.45
2023-02-13T02:55:03.723Z,6.20
2023-02-13T02:57:52.503Z,6.93
2023-02-13T03:00:42.933Z,7.20
2023-02-13T03:03:36.525Z,6.57
2023-02-13T03:06:12.136Z,6.70
2023-02-13T03:08:59.910Z,6.43
2023-02-13T03:11:46.096Z,6.07
2023-02-13T03:14:18.276Z,7.65
2023-02-13T03:17:03.849Z,6.63
2023-02-13T03:20:11.958Z,5.85
2023-02-13T03:23:00.231Z,6.00
2023-02-13T03:26:07.396Z,6.63
2023-02-13T03:29:04.498Z,6.75
2023-02-13T03:31:46.594Z,6.85
2023-02-13T03:34:15.495Z,6.85
2023-02-13T03:37:23.942Z,6.70
2023-02-13T03:40:00.924Z,6.50
2023-02-13T03:42:36.427Z,6.72
2023-02-13T03:45:27.928Z,6.10
2023-02-13T03:47:58.810Z,6.55
2023-02-13T03:50:27.990Z,6.67
2023-02-13T03:53:06.842Z,6.05
2023-02-13T03:55:56.295Z,7.32
2023-02-13T03:58:46.967Z,6.55
2023-02-13T04:01:17.807Z,6.28
2023-02-13T04:03:52.274Z,5.97
2023-02-13T04:06:27.703Z,5.47
2023-02-13T04:08:54.299Z,7.32
2023-02-13T04:11:28.300Z,6.30
2023-02-13T04:14:01.523Z,6.63
2023-02-13T04:16:34.975Z,6.70
2023-02-13T04:19:02.712Z,6.57
2023-02-13T04:21:36.763Z,7.00
2023-02-13T04:24:04.164Z,5.55
2023-02-13T04:26:37.869Z,6.32
2023-02-13T04:29:05.081Z,6.65
2023-02-13T04:31:32.141Z,6.32
2023-02-13T04:33:58.863Z,6.88
2023-02-13T04:36:25.621Z,6.97
2023-02-13T04:38:52.711Z,5.38
2023-02-13T04:41:19.545Z,6.18
2023-02-13T04:43:46.237Z,6.55
2023-02-13T04:46:13.333Z,6.60
2023-02-13T04:48:39.928Z,5.65
2023-02-13T04:51:06.756Z,6.30
2023-02-13T04:53:33.275Z,6.13
2023-02-13T04:56:00.142Z,6.47
2023-02-13T04:58:26.737Z,6.15
2023-02-13T05:00:53.482Z,6.40
2023-02-13T05:03:20.284Z,6.80
2023-02-13T05:05:48.458Z,6.43
2023-02-13T05:08:15.410Z,6.00
2023-02-13T05:10:42.259Z,7.15
2023-02-13T05:13:08.921Z,6.85
2023-02-13T05:15:35.638Z,5.40
2023-02-13T05:18:02.409Z,6.55
2023-02-13T05:20:28.969Z,6.65
2023-02-13T05:23:13.958Z,7.00
2023-02-13T05:25:42.022Z,6.10
2023-02-13T05:28:32.319Z,5.57
2023-02-13T05:30:59.439Z,5.38
2023-02-13T05:33:26.786Z,6.10
2023-02-13T05:35:53.478Z,6.57
2023-02-13T05:38:20.199Z,6.43
2023-02-13T05:40:46.796Z,6.78
2023-02-13T05:43:13.530Z,6.80
2023-02-13T05:45:40.410Z,6.78
2023-02-13T05:48:07.260Z,6.25
2023-02-13T05:50:34.483Z,6.47
2023-02-13T05:53:01.442Z,7.43
2023-02-13T05:55:28.110Z,5.85
2023-02-13T05:57:58.321Z,6.03
2023-02-13T06:00:25.341Z,6.50
2023-02-13T06:02:52.440Z,6.60
2023-02-13T06:05:19.053Z,7.18
2023-02-13T06:07:45.604Z,6.97
2023-02-13T06:10:12.245Z,5.95
2023-02-13T06:12:38.856Z,6.78
2023-02-13T06:15:06.730Z,6.10
2023-02-13T06:17:33.295Z,6.50
2023-02-13T06:20:00.013Z,5.30
2023-02-13T06:22:26.579Z,7.10
2023-02-13T06:24:53.174Z,5.63
2023-02-13T06:27:19.734Z,7.05
2023-02-13T06:29:46.869Z,6.13
2023-02-13T06:32:14.080Z,7.10
2023-02-13T06:34:40.709Z,7.13
2023-02-13T06:37:07.645Z,6.88
2023-02-13T06:39:34.719Z,6.63
2023-02-13T06:42:01.360Z,6.63
2023-02-13T06:44:28.018Z,6.25
2023-02-13T06:46:54.791Z,6.97
2023-02-13T06:49:21.389Z,6.78
2023-02-13T06:51:48.389Z,6.00
2023-02-13T06:54:15.369Z,5.90
2023-02-13T06:56:42.024Z,5.68
2023-02-13T06:59:08.788Z,6.82
2023-02-13T07:01:35.599Z,7.20
2023-02-13T07:04:02.343Z,6.32
2023-02-13T07:06:29.210Z,6.65
2023-02-13T07:08:55.988Z,5.65
2023-02-13T07:11:24.846Z,6.00
2023-02-13T07:13:54.452Z,6.45
2023-02-13T07:16:21.321Z,5.70
2023-02-13T07:18:48.116Z,6.57
2023-02-13T07:21:14.671Z,5.88
2023-02-13T07:23:41.504Z,7.72
2023-02-13T07:26:08.114Z,7.57
2023-02-13T07:28:34.858Z,6.78
2023-02-13T07:31:05.802Z,7.53
2023-02-13T07:33:35.581Z,7.15
2023-02-13T07:36:04.928Z,6.32
2023-02-13T07:38:32.501Z,6.32
2023-02-13T07:41:04.269Z,6.88
2023-02-13T07:43:31.212Z,6.70
2023-02-13T07:46:03.149Z,7.03
2023-02-13T07:48:31.500Z,5.95
2023-02-13T07:51:05.673Z,6.60
2023-02-13T07:53:32.300Z,7.72
2023-02-13T07:55:59.164Z,6.82
2023-02-13T07:58:25.938Z,6.88
2023-02-13T08:00:52.635Z,6.97
2023-02-13T08:03:19.237Z,5.65
2023-02-13T08:05:48.645Z,6.38
2023-02-13T08:08:15.924Z,6.82
2023-02-13T08:11:01.180Z,6.75
2023-02-13T08:13:28.242Z,6.47
2023-02-13T08:15:57.868Z,6.45
2023-02-13T08:18:24.792Z,7.03
2023-02-13T08:20:51.486Z,5.85
2023-02-13T08:23:18.205Z,7.75
2023-02-13T08:25:45.089Z,7.10
2023-02-13T08:28:11.906Z,5.95
2023-02-13T08:30:38.637Z,6.13
2023-02-13T08:33:05.376Z,6.88
2023-02-13T08:35:32.239Z,6.38
2023-02-13T08:38:03.937Z,6.25
2023-02-13T08:40:31.363Z,5.38
2023-02-13T08:43:02.261Z,5.85
2023-02-13T08:45:29.033Z,6.65
2023-02-13T08:47:57.746Z,6.20
2023-02-13T08:50:25.406Z,6.40
2023-02-13T08:52:52.370Z,5.95
2023-02-13T08:55:19.357Z,6.57
2023-02-13T08:57:46.528Z,5.68
2023-02-13T09:00:13.688Z,5.97
2023-02-13T09:02:40.612Z,5.85
2023-02-13T09:05:07.428Z,5.88
2023-02-13T09:07:34.163Z,5.10
2023-02-13T09:10:00.753Z,5.03
2023-02-13T09:12:27.332Z,5.50
2023-02-13T09:14:54.184Z,5.57
2023-02-13T09:17:20.842Z,5.22
2023-02-13T09:19:47.497Z,6.40
2023-02-13T09:22:17.060Z,5.75
2023-02-13T09:24:44.047Z,5.72
2023-02-13T09:27:10.591Z,4.75
2023-02-13T09:29:37.335Z,4.20
2023-02-13T09:32:05.600Z,5.00
2023-02-13T09:34:32.265Z,5.03
2023-02-13T09:36:59.044Z,5.53
2023-02-13T09:39:25.994Z,6.15
2023-02-13T09:41:54.079Z,5.22
2023-02-13T09:44:43.370Z,5.57
2023-02-13T09:47:20.589Z,4.90
2023-02-13T09:49:52.825Z,6.07
2023-02-13T09:52:19.909Z,6.32
2023-02-13T09:54:46.615Z,5.32
2023-02-13T09:57:36.945Z,5.15
2023-02-13T10:00:15.447Z,5.20
2023-02-13T10:02:42.255Z,4.35
2023-02-13T10:05:35.525Z,5.00
2023-02-13T10:08:24.063Z,5.10
2023-02-13T10:11:02.790Z,4.60
2023-02-13T10:13:47.619Z,4.78
2023-02-13T10:16:22.528Z,4.80
2023-02-13T10:19:15.493Z,4.93
2023-02-13T10:22:05.236Z,6.63
2023-02-13T10:24:38.902Z,4.32
2023-02-13T10:27:18.136Z,4.97
2023-02-13T10:30:06.967Z,4.65
2023-02-13T10:33:11.155Z,4.32
2023-02-13T10:35:39.245Z,5.57
2023-02-13T10:38:18.437Z,4.53
2023-02-13T10:41:12.628Z,4.93
2023-02-13T10:44:12.484Z,4.80
2023-02-13T10:46:57.863Z,4.20
2023-02-13T10:49:45.811Z,4.38
2023-02-13T10:52:26.840Z,4.03
2023-02-13T10:55:12.155Z,4.40
2023-02-13T10:58:06.134Z,4.70
2023-02-13T11:00:39.356Z,4.07
2023-02-13T11:03:11.183Z,4.03
2023-02-13T11:05:39.377Z,4.63
2023-02-13T11:08:33.191Z,4.13
2023-02-13T11:11:00.177Z,4.65
2023-02-13T11:13:29.152Z,3.85
2023-02-13T11:16:10.538Z,4.57
2023-02-13T11:18:41.421Z,5.03
2023-02-13T11:21:11.438Z,4.32
2023-02-13T11:23:43.692Z,5.50
2023-02-13T11:26:22.671Z,4.40
2023-02-13T11:28:56.505Z,4.90
2023-02-13T11:31:30.999Z,4.43
2023-02-13T11:34:00.246Z,5.78
2023-02-13T11:36:32.197Z,4.95
2023-02-13T11:39:22.885Z,4.97
2023-02-13T11:41:52.902Z,4.32
2023-02-13T11:44:27.228Z,5.88
2023-02-13T11:46:57.041Z,5.60
2023-02-13T11:49:25.227Z,5.13
2023-02-13T11:51:54.841Z,4.70
2023-02-13T11:54:26.767Z,4.90
2023-02-13T11:58:00.262Z,4.57
2023-02-13T12:00:42.956Z,5.45
2023-02-13T12:03:21.874Z,4.80
2023-02-13T12:06:07.260Z,5.63
2023-02-13T12:08:37.852Z,4.95
2023-02-13T12:11:24.662Z,5.05
2023-02-13T12:13:52.448Z,4.97
2023-02-13T12:16:24.954Z,5.60
2023-02-13T12:18:56.074Z,5.43
2023-02-13T12:21:44.702Z,5.60
2023-02-13T12:24:29.563Z,5.80
2023-02-13T12:27:19.267Z,5.90
2023-02-13T12:30:05.300Z,6.05
2023-02-13T12:32:59.579Z,5.90
2023-02-13T12:35:29.309Z,6.10
2023-02-13T12:37:59.958Z,5.93
2023-02-13T12:40:39.942Z,6.05
2023-02-13T12:43:28.599Z,5.65
2023-02-13T12:46:27.349Z,6.93
2023-02-13T12:49:09.368Z,6.53
2023-02-13T12:54:26.920Z,5.90
2023-02-13T12:57:36.544Z,5.25
2023-02-13T13:00:38.386Z,5.60
2023-02-13T13:03:18.172Z,6.78
2023-02-13T13:06:09.022Z,6.05
2023-02-13T13:09:03.006Z,6.47
2023-02-13T13:11:44.946Z,6.95
2023-02-13T13:14:30.303Z,6.40
2023-02-13T13:17:03.182Z,5.88
2023-02-13T13:19:51.384Z,5.95
2023-02-13T13:22:18.106Z,5.65
2023-02-13T13:25:12.724Z,6.47
2023-02-13T13:27:50.226Z,7.00
2023-02-13T13:30:22.708Z,6.90
2023-02-13T13:32:54.836Z,6.88
2023-02-13T13:35:22.222Z,6.07
2023-02-13T13:38:09.956Z,6.35
2023-02-13T13:40:51.111Z,6.40
2023-02-13T13:43:17.744Z,6.60
2023-02-13T13:46:01.868Z,7.35
2023-02-13T13:48:55.985Z,6.32
2023-02-13T13:51:23.456Z,6.97
2023-02-13T13:54:05.183Z,5.95
2023-02-13T13:57:05.456Z,6.32
2023-02-13T13:59:38.249Z,8.38
2023-02-13T14:02:19.969Z,6.78
2023-02-13T14:07:38.173Z,6.28
2023-02-13T14:10:06.150Z,6.20
2023-02-13T14:12:32.680Z,6.38
2023-02-13T14:15:00.225Z,5.80
2023-02-13T14:17:45.297Z,6.05
2023-02-13T14:20:37.376Z,5.88
2023-02-13T14:23:13.114Z,6.38
2023-02-13T14:25:42.788Z,6.53
2023-02-13T14:28:25.128Z,7.13
2023-02-13T14:31:04.445Z,7.85
2023-02-13T14:33:32.688Z,7.22
2023-02-13T14:36:02.992Z,5.95
2023-02-13T14:38:30.271Z,7.35
2023-02-13T14:40:59.203Z,6.85
2023-02-13T14:43:29.998Z,7.07
2023-02-13T14:46:16.922Z,8.10
2023-02-13T14:48:53.072Z,7.60
2023-02-13T14:51:32.076Z,7.75
2023-02-13T14:54:05.042Z,8.35
2023-02-13T14:56:32.601Z,8.32
2023-02-13T14:59:07.415Z,7.53
2023-02-13T15:01:42.673Z,8.35
2023-02-13T15:04:22.683Z,8.98
2023-02-13T15:06:50.975Z,8.60
2023-02-13T15:09:20.666Z,8.75
2023-02-13T15:11:47.363Z,9.27
2023-02-13T15:14:18.506Z,8.77
2023-02-13T15:16:48.671Z,9.07
2023-02-13T15:19:17.288Z,9.13
2023-02-13T15:21:50.903Z,9.13
2023-02-13T15:24:17.725Z,9.27
2023-02-13T15:26:50.969Z,8.60
2023-02-13T15:29:29.213Z,8.60
2023-02-13T15:31:58.871Z,9.02
2023-02-13T15:34:29.905Z,8.85
2023-02-13T15:36:56.975Z,8.25
2023-02-13T15:39:29.290Z,8.85
2023-02-13T15:41:59.059Z,9.30
2023-02-13T15:44:36.898Z,8.52
2023-02-13T15:47:14.421Z,9.68
2023-02-13T15:49:47.356Z,8.98
2023-02-13T15:52:36.773Z,9.38
2023-02-13T15:55:04.165Z,9.82
2023-02-13T15:57:31.545Z,9.43
2023-02-13T16:00:00.484Z,8.70
2023-02-13T16:02:41.898Z,9.57
2023-02-13T16:05:12.994Z,9.15
2023-02-13T16:07:51.581Z,10.32
2023-02-13T16:10:36.383Z,9.07
2023-02-13T16:13:05.860Z,9.68
2023-02-13T16:15:35.895Z,8.50
2023-02-13T16:18:03.962Z,10.25
2023-02-13T16:20:33.353Z,9.65
2023-02-13T16:23:13.821Z,9.35
2023-02-13T16:25:41.305Z,9.57
2023-02-13T16:28:24.283Z,8.75
2023-02-13T16:31:00.166Z,8.13
2023-02-13T16:33:26.819Z,9.35
2023-02-13T16:35:56.652Z,9.60
2023-02-13T16:38:25.979Z,8.65
2023-02-13T16:40:53.208Z,8.05
2023-02-13T16:43:41.658Z,9.07
2023-02-13T16:46:26.893Z,8.02
2023-02-13T16:48:56.255Z,7.68
2023-02-13T16:51:30.760Z,7.47
2023-02-13T16:54:04.533Z,8.15
2023-02-13T16:56:48.436Z,7.65
2023-02-13T16:59:33.239Z,7.68
2023-02-13T17:02:25.263Z,8.35
2023-02-13T17:05:14.797Z,7.18
2023-02-13T17:07:44.103Z,7.68
2023-02-13T17:10:23.874Z,8.07
2023-02-13T17:12:51.487Z,7.55
2023-02-13T17:15:23.656Z,8.15
2023-02-13T17:17:51.272Z,9.15
2023-02-13T17:20:21.533Z,7.68
2023-02-13T17:22:50.876Z,7.05
2023-02-13T17:25:20.896Z,7.85
2023-02-13T17:27:47.756Z,6.60
2023-02-13T17:30:19.794Z,7.82
2023-02-13T17:32:48.428Z,6.82
2023-02-13T17:35:16.577Z,8.50
2023-02-13T17:37:44.470Z,7.15
2023-02-13T17:40:18.034Z,7.05
2023-02-13T17:42:47.051Z,6.82
2023-02-13T17:45:15.833Z,6.38
2023-02-13T17:47:42.519Z,7.70
2023-02-13T17:50:11.006Z,7.28
2023-02-13T17:52:38.801Z,7.50
2023-02-13T17:55:07.448Z,6.53
2023-02-13T17:57:34.195Z,7.13
2023-02-13T18:00:04.700Z,9.88
2023-02-13T18:02:39.229Z,8.20
2023-02-13T18:05:06.679Z,7.53
2023-02-13T18:07:33.258Z,8.38
2023-02-13T18:09:59.791Z,8.82
2023-02-13T18:12:26.566Z,8.00
2023-02-13T18:14:54.149Z,9.32
2023-02-13T18:17:21.232Z,7.88
2023-02-13T18:19:47.918Z,7.28
2023-02-13T18:22:14.541Z,8.38
2023-02-13T18:24:42.450Z,8.65
2023-02-13T18:27:11.214Z,7.65
2023-02-13T18:29:38.883Z,8.25
2023-02-13T18:32:10.260Z,9.35
2023-02-13T18:34:38.479Z,8.65
2023-02-13T18:37:06.455Z,9.15
2023-02-13T18:39:33.632Z,8.82
2023-02-13T18:42:00.610Z,8.40
2023-02-13T18:44:28.869Z,9.63
2023-02-13T18:46:56.466Z,8.75
2023-02-13T18:49:23.129Z,9.45
2023-02-13T18:51:51.030Z,10.07
2023-02-13T18:54:21.566Z,9.73
2023-02-13T18:56:48.861Z,8.88
2023-02-13T18:59:16.001Z,10.10
2023-02-13T19:01:42.621Z,9.02
2023-02-13T19:04:11.092Z,9.25
2023-02-13T19:06:42.423Z,9.18
2023-02-13T19:09:09.861Z,8.60
2023-02-13T19:11:38.448Z,9.82
2023-02-13T19:14:07.164Z,9.35
2023-02-13T19:16:35.523Z,10.68
2023-02-13T19:19:04.651Z,9.32
2023-02-13T19:21:34.045Z,10.38
2023-02-13T19:24:02.754Z,9.65
2023-02-13T19:26:29.815Z,10.60
2023-02-13T19:28:57.751Z,9.23
2023-02-13T19:31:29.991Z,8.27
2023-02-13T19:33:56.917Z,9.30
2023-02-13T19:36:25.661Z,8.98
2023-02-13T19:39:00.353Z,8.68
2023-02-13T19:41:27.236Z,9.20
2023-02-13T19:43:53.867Z,8.50
2023-02-13T19:46:27.233Z,9.15
2023-02-13T19:48:55.005Z,9.05
2023-02-13T19:51:30.306Z,9.48
2023-02-13T19:54:05.741Z,9.45
2023-02-13T19:56:35.290Z,10.55
2023-02-13T19:59:02.159Z,9.95
2023-02-13T20:01:29.933Z,8.00
2023-02-13T20:03:56.748Z,8.73
2023-02-13T20:06:31.722Z,9.52
2023-02-13T20:09:01.896Z,8.50
2023-02-13T20:11:28.870Z,8.15
2023-02-13T20:13:57.646Z,8.95
2023-02-13T20:16:24.878Z,8.65
2023-02-13T20:18:52.478Z,8.65
2023-02-13T20:21:20.902Z,7.68
2023-02-13T20:23:50.458Z,9.35
2023-02-13T20:26:17.395Z,9.13
2023-02-13T20:28:47.882Z,9.35
2023-02-13T20:31:20.175Z,9.50
2023-02-13T20:33:48.257Z,8.77
2023-02-13T20:36:18.623Z,7.55
2023-02-13T20:38:46.581Z,8.80
2023-02-13T20:41:19.352Z,9.50
2023-02-13T20:43:46.940Z,8.57
2023-02-13T20:46:16.093Z,9.18
2023-02-13T20:48:45.446Z,8.82
2023-02-13T20:51:14.417Z,9.05
2023-02-13T20:53:42.226Z,9.50
2023-02-13T20:56:15.879Z,8.98
2023-02-13T20:58:44.172Z,7.68
2023-02-13T21:01:22.437Z,8.85
2023-02-13T21:03:53.736Z,10.02
2023-02-13T21:06:26.074Z,10.43
2023-02-13T21:08:52.824Z,9.18
2023-02-13T21:11:20.289Z,10.82
2023-02-13T21:13:47.668Z,18.70
2023-02-13T21:16:19.518Z,9.82
2023-02-13T21:18:51.359Z,10.73
2023-02-13T21:21:19.173Z,7.88
2023-02-13T21:23:46.438Z,8.50
2023-02-13T21:26:18.142Z,8.10
2023-02-13T21:31:29.478Z,7.35
2023-02-13T21:34:05.536Z,8.90
2023-02-13T21:36:33.919Z,7.53
2023-02-13T21:39:01.142Z,7.38
2023-02-13T21:41:27.944Z,9.55
2023-02-13T21:43:54.926Z,8.48
2023-02-13T21:46:32.998Z,7.78
2023-02-13T21:49:02.571Z,8.90
2023-02-13T21:51:31.782Z,9.73
2023-02-13T21:53:59.297Z,7.85
2023-02-13T21:56:29.137Z,9.32
2023-02-13T21:58:56.646Z,8.10
2023-02-13T22:01:29.950Z,8.77
2023-02-13T22:04:00.747Z,9.13
2023-02-13T22:06:29.470Z,10.13
2023-02-13T22:09:02.128Z,7.03
2023-02-13T22:11:29.558Z,8.15
2023-02-13T22:14:00.076Z,8.25
2023-02-13T22:16:27.274Z,7.80
2023-02-13T22:18:54.626Z,7.60
2023-02-13T22:21:23.549Z,8.85
2023-02-13T22:23:53.470Z,8.23
2023-02-13T22:26:30.711Z,8.45
2023-02-13T22:29:03.269Z,7.80
2023-02-13T22:31:30.347Z,9.35
2023-02-13T22:34:03.950Z,7.90
2023-02-13T22:36:33.070Z,8.70
2023-02-13T22:38:59.892Z,7.35
2023-02-13T22:41:27.004Z,6.90
2023-02-13T22:43:54.118Z,7.63
2023-02-13T22:46:23.974Z,9.05
2023-02-13T22:48:54.035Z,7.70
2023-02-13T22:51:24.373Z,8.32
2023-02-13T22:53:56.282Z,9.20
2023-02-13T22:56:24.343Z,7.93
2023-02-13T22:58:51.863Z,7.63
2023-02-13T23:01:22.146Z,6.88
2023-02-13T23:03:48.873Z,7.78
2023-02-13T23:06:16.242Z,7.95
2023-02-13T23:08:43.692Z,6.90
2023-02-13T23:11:35.527Z,7.10
2023-02-13T23:14:03.131Z,6.55
2023-02-13T23:16:53.162Z,7.55
2023-02-13T23:19:20.850Z,7.57
2023-02-13T23:21:47.608Z,8.02
2023-02-13T23:24:14.405Z,8.18
2023-02-13T23:26:41.226Z,6.65
2023-02-13T23:29:08.015Z,6.30
2023-02-13T23:31:34.608Z,7.20
2023-02-13T23:34:01.441Z,7.60
2023-02-13T23:36:28.658Z,7.07
2023-02-13T23:38:55.319Z,6.20
2023-02-13T23:41:22.016Z,5.70
2023-02-13T23:43:48.623Z,7.25
2023-02-13T23:46:15.335Z,6.53
2023-02-13T23:48:42.392Z,6.30
2023-02-13T23:51:08.929Z,7.55
2023-02-13T23:53:36.166Z,6.00
2023-02-13T23:56:03.455Z,6.28
2023-02-13T23:58:30.565Z,6.15
